createdAt,value
2018-06-14T00:01:04.261Z,4.47
2018-06-14T00:03:32.503Z,3.60
2018-06-14T00:06:01.080Z,3.20
2018-06-14T00:08:29.704Z,3.70
2018-06-14T00:10:58.305Z,3.67
2018-06-14T00:13:26.917Z,4.07
2018-06-14T00:15:55.500Z,3.57
2018-06-14T00:18:24.094Z,6.00
2018-06-14T00:20:52.678Z,3.90
2018-06-14T00:23:21.288Z,5.33
2018-06-14T00:25:49.905Z,3.93
2018-06-14T00:28:18.531Z,3.57
2018-06-14T00:30:47.100Z,4.90
2018-06-14T00:33:15.706Z,3.60
2018-06-14T00:35:44.297Z,4.67
2018-06-14T00:38:12.869Z,3.80
2018-06-14T00:40:41.470Z,3.63
2018-06-14T00:43:10.063Z,4.33
2018-06-14T00:45:38.748Z,3.87
2018-06-14T00:48:07.334Z,5.33
2018-06-14T00:50:35.932Z,6.67
2018-06-14T00:53:04.534Z,5.13
2018-06-14T00:55:33.139Z,4.83
2018-06-14T00:58:01.741Z,4.67
2018-06-14T01:00:30.375Z,5.13
2018-06-14T01:02:58.976Z,5.43
2018-06-14T01:05:27.609Z,5.00
2018-06-14T01:07:56.179Z,4.70
2018-06-14T01:10:24.804Z,6.57
2018-06-14T01:12:53.411Z,4.77
2018-06-14T01:15:22.012Z,4.70
2018-06-14T01:17:50.590Z,5.30
2018-06-14T01:20:19.208Z,4.20
2018-06-14T01:22:47.776Z,4.77
2018-06-14T01:25:16.419Z,5.40
2018-06-14T01:27:45.042Z,4.63
2018-06-14T01:30:13.700Z,4.80
2018-06-14T01:32:42.350Z,6.97
2018-06-14T01:35:10.923Z,5.87
2018-06-14T01:37:50.818Z,5.03
2018-06-14T01:40:19.441Z,4.53
2018-06-14T01:42:48.068Z,5.07
2018-06-14T01:45:16.669Z,5.67
2018-06-14T01:47:45.266Z,5.57
2018-06-14T01:50:13.846Z,10.93
2018-06-14T01:52:42.430Z,7.03
2018-06-14T01:55:11.018Z,7.07
2018-06-14T01:57:39.678Z,7.30
2018-06-14T02:00:08.350Z,8.33
2018-06-14T02:02:37.070Z,7.63
2018-06-14T02:05:05.873Z,8.87
2018-06-14T02:07:34.441Z,8.57
2018-06-14T02:10:03.102Z,9.83
2018-06-14T02:12:31.819Z,10.00
2018-06-14T02:15:00.530Z,8.43
2018-06-14T02:17:29.117Z,10.37
2018-06-14T02:19:57.739Z,9.00
2018-06-14T02:22:26.313Z,9.37
2018-06-14T02:24:54.939Z,9.53
2018-06-14T02:27:23.529Z,8.57
2018-06-14T02:29:52.286Z,10.03
2018-06-14T02:32:20.965Z,10.13
2018-06-14T02:34:49.583Z,10.40
2018-06-14T02:37:18.549Z,7.90
2018-06-14T02:39:47.177Z,8.57
2018-06-14T02:42:15.770Z,8.60
2018-06-14T02:44:44.397Z,8.23
2018-06-14T02:47:12.986Z,7.70
2018-06-14T02:49:41.558Z,7.30
2018-06-14T02:52:10.146Z,7.97
2018-06-14T02:54:38.727Z,8.80
2018-06-14T02:57:07.375Z,10.60
2018-06-14T02:59:36.918Z,8.70
2018-06-14T03:02:05.557Z,9.50
2018-06-14T03:04:34.152Z,7.27
2018-06-14T03:07:02.826Z,9.30
2018-06-14T03:09:31.410Z,7.47
2018-06-14T03:12:00.041Z,8.40
2018-06-14T03:14:28.653Z,8.47
2018-06-14T03:16:57.249Z,9.83
2018-06-14T03:19:25.861Z,8.23
2018-06-14T03:21:54.485Z,9.03
2018-06-14T03:24:23.128Z,9.53
2018-06-14T03:26:51.724Z,7.10
2018-06-14T03:29:20.368Z,8.13
2018-06-14T03:31:48.988Z,9.10
2018-06-14T03:34:17.601Z,9.23
2018-06-14T03:36:46.275Z,9.07
2018-06-14T03:39:14.870Z,12.07
2018-06-14T03:41:43.473Z,10.90
2018-06-14T03:44:12.174Z,7.43
2018-06-14T03:46:40.784Z,9.97
2018-06-14T03:49:09.458Z,7.57
2018-06-14T03:51:38.110Z,9.73
2018-06-14T03:54:06.739Z,8.90
2018-06-14T03:56:35.349Z,8.20
2018-06-14T03:59:03.932Z,8.73
2018-06-14T04:01:32.525Z,9.00
2018-06-14T04:04:01.120Z,10.50
2018-06-14T04:06:29.837Z,8.97
2018-06-14T04:08:58.418Z,11.17
2018-06-14T04:11:27.137Z,9.80
2018-06-14T04:13:55.777Z,7.50
2018-06-14T04:16:24.370Z,7.03
2018-06-14T04:18:52.941Z,8.50
2018-06-14T04:21:21.578Z,7.90
2018-06-14T04:23:50.189Z,8.53
2018-06-14T04:26:18.754Z,6.73
2018-06-14T04:28:47.371Z,9.03
2018-06-14T04:31:15.957Z,6.77
2018-06-14T04:33:44.553Z,7.93
2018-06-14T04:36:13.122Z,6.87
2018-06-14T04:38:42.046Z,6.73
2018-06-14T04:41:10.636Z,6.73
2018-06-14T04:43:39.288Z,7.30
2018-06-14T04:46:08.121Z,7.33
2018-06-14T04:48:36.744Z,8.63
2018-06-14T04:51:05.370Z,9.03
2018-06-14T04:53:38.418Z,7.10
2018-06-14T04:56:08.089Z,7.03
2018-06-14T04:58:36.783Z,7.43
2018-06-14T05:01:05.975Z,7.23
2018-06-14T05:03:34.795Z,8.17
2018-06-14T05:06:03.671Z,7.90
2018-06-14T05:08:32.246Z,6.50
2018-06-14T05:11:00.860Z,6.23
2018-06-14T05:13:29.421Z,8.30
2018-06-14T05:16:01.786Z,8.10
2018-06-14T05:18:30.405Z,6.83
2018-06-14T05:20:58.997Z,6.33
2018-06-14T05:23:27.918Z,8.67
2018-06-14T05:25:56.498Z,8.80
2018-06-14T05:28:25.157Z,6.90
2018-06-14T05:30:53.789Z,7.10
2018-06-14T05:33:22.370Z,7.80
2018-06-14T05:35:50.996Z,7.73
2018-06-14T05:38:19.619Z,7.57
2018-06-14T05:40:48.256Z,8.10
2018-06-14T05:43:16.843Z,7.73
2018-06-14T05:45:45.477Z,7.70
2018-06-14T05:48:14.057Z,7.63
2018-06-14T05:50:42.638Z,8.57
2018-06-14T05:53:11.230Z,8.43
2018-06-14T05:55:39.830Z,7.87
2018-06-14T05:58:08.427Z,10.63
2018-06-14T06:00:37.097Z,7.40
2018-06-14T06:03:05.757Z,9.90
2018-06-14T06:05:34.345Z,8.80
2018-06-14T06:08:02.977Z,8.30
2018-06-14T06:10:31.549Z,8.30
2018-06-14T06:13:00.186Z,6.80
2018-06-14T06:15:28.766Z,7.60
2018-06-14T06:17:57.374Z,7.17
2018-06-14T06:20:25.980Z,7.60
2018-06-14T06:22:54.590Z,8.83
2018-06-14T06:25:23.258Z,7.97
2018-06-14T06:27:51.826Z,6.13
2018-06-14T06:30:20.443Z,6.23
2018-06-14T06:32:49.026Z,7.07
2018-06-14T06:35:17.639Z,7.47
2018-06-14T06:37:46.222Z,6.90
2018-06-14T06:40:14.817Z,7.83
2018-06-14T06:42:43.422Z,6.50
2018-06-14T06:45:12.062Z,6.33
2018-06-14T06:47:40.649Z,7.23
2018-06-14T06:50:09.253Z,7.93
2018-06-14T06:52:38.108Z,6.50
2018-06-14T06:55:06.753Z,6.53
2018-06-14T06:57:35.359Z,5.67
2018-06-14T07:00:05.149Z,7.13
2018-06-14T07:02:33.806Z,6.70
2018-06-14T07:05:02.401Z,5.40
2018-06-14T07:07:30.989Z,6.00
2018-06-14T07:09:59.565Z,5.07
2018-06-14T07:12:28.189Z,6.23
2018-06-14T07:14:56.782Z,5.77
2018-06-14T07:17:25.462Z,5.80
2018-06-14T07:19:54.042Z,6.93
2018-06-14T07:22:22.673Z,6.70
2018-06-14T07:24:51.260Z,6.27
2018-06-14T07:27:19.872Z,7.10
2018-06-14T07:29:48.465Z,5.33
2018-06-14T07:32:17.063Z,5.87
2018-06-14T07:34:45.641Z,5.67
2018-06-14T07:37:14.217Z,7.37
2018-06-14T07:39:42.817Z,7.17
2018-06-14T07:42:11.397Z,6.00
2018-06-14T07:44:40.000Z,5.27
2018-06-14T07:47:08.610Z,5.97
2018-06-14T07:49:37.295Z,5.60
2018-06-14T07:52:05.875Z,7.57
2018-06-14T07:54:34.469Z,6.27
2018-06-14T07:57:03.108Z,7.83
2018-06-14T07:59:31.798Z,7.80
2018-06-14T08:02:00.422Z,6.07
2018-06-14T08:04:29.009Z,7.07
2018-06-14T08:06:57.581Z,7.07
2018-06-14T08:09:26.223Z,7.87
2018-06-14T08:11:54.814Z,6.93
2018-06-14T08:14:23.816Z,5.67
2018-06-14T08:16:52.445Z,6.40
2018-06-14T08:19:21.007Z,6.70
2018-06-14T08:21:49.656Z,7.13
2018-06-14T08:24:18.321Z,5.73
2018-06-14T08:26:46.959Z,6.27
2018-06-14T08:29:15.550Z,6.30
2018-06-14T08:31:44.228Z,5.60
2018-06-14T08:34:12.841Z,5.13
2018-06-14T08:36:41.483Z,7.53
2018-06-14T08:39:10.170Z,6.37
2018-06-14T08:41:38.846Z,6.37
2018-06-14T08:44:07.704Z,6.00
2018-06-14T08:46:36.366Z,6.23
2018-06-14T08:49:05.037Z,7.10
2018-06-14T08:51:33.598Z,5.30
2018-06-14T08:54:02.186Z,6.63
2018-06-14T08:56:30.879Z,5.83
2018-06-14T08:58:59.541Z,6.53
2018-06-14T09:01:28.152Z,7.73
2018-06-14T09:03:56.739Z,4.93
2018-06-14T09:06:25.309Z,6.17
2018-06-14T09:08:53.988Z,5.23
2018-06-14T09:11:22.994Z,6.77
2018-06-14T09:13:51.593Z,6.93
2018-06-14T09:16:20.167Z,6.00
2018-06-14T09:18:48.757Z,6.97
2018-06-14T09:21:17.333Z,5.87
2018-06-14T09:23:45.575Z,5.23
2018-06-14T09:26:14.307Z,5.50
2018-06-14T09:28:43.506Z,5.73
2018-06-14T09:31:12.354Z,7.73
2018-06-14T09:33:41.922Z,7.43
2018-06-14T09:36:11.341Z,5.03
2018-06-14T09:38:40.001Z,5.33
2018-06-14T09:41:08.596Z,5.00
2018-06-14T09:43:37.166Z,5.00
2018-06-14T09:46:05.829Z,5.23
2018-06-14T09:48:34.423Z,5.33
2018-06-14T09:51:03.278Z,4.33
2018-06-14T09:53:32.050Z,5.10
2018-06-14T09:56:00.690Z,4.03
2018-06-14T09:58:29.286Z,4.47
2018-06-14T10:00:57.981Z,7.20
2018-06-14T10:03:26.613Z,4.97
2018-06-14T10:05:55.294Z,4.33
2018-06-14T10:08:24.065Z,6.07
2018-06-14T10:10:52.661Z,5.47
2018-06-14T10:13:21.281Z,4.37
2018-06-14T10:15:49.921Z,4.40
2018-06-14T10:18:18.509Z,4.43
2018-06-14T10:20:47.124Z,5.10
2018-06-14T10:23:15.939Z,4.10
2018-06-14T10:25:44.181Z,4.23
2018-06-14T10:28:12.921Z,3.60
2018-06-14T10:30:41.738Z,3.80
2018-06-14T10:33:10.569Z,3.33
2018-06-14T10:35:39.223Z,4.37
2018-06-14T10:38:07.793Z,3.40
2018-06-14T10:40:36.496Z,2.70
2018-06-14T10:43:06.157Z,3.10
2018-06-14T10:45:35.312Z,3.27
2018-06-14T10:48:03.908Z,2.83
2018-06-14T10:50:32.492Z,3.07
2018-06-14T10:53:01.115Z,2.87
2018-06-14T10:55:30.583Z,2.90
2018-06-14T10:57:59.425Z,3.50
2018-06-14T11:00:28.105Z,3.00
2018-06-14T11:02:56.727Z,3.17
2018-06-14T11:05:25.323Z,2.63
2018-06-14T11:07:53.902Z,2.67
2018-06-14T11:10:22.528Z,3.17
2018-06-14T11:12:51.760Z,3.00
2018-06-14T11:15:20.405Z,3.30
2018-06-14T11:17:49.073Z,2.50
2018-06-14T11:20:17.848Z,2.57
2018-06-14T11:22:46.625Z,2.90
2018-06-14T11:25:15.262Z,2.60
2018-06-14T11:27:43.903Z,2.70
2018-06-14T11:30:12.680Z,3.07
2018-06-14T11:32:41.376Z,2.90
2018-06-14T11:35:09.960Z,3.03
2018-06-14T11:37:38.554Z,2.58
2018-06-14T11:40:07.389Z,3.07
2018-06-14T11:42:36.252Z,2.87
2018-06-14T11:45:05.472Z,2.77
2018-06-14T11:47:34.315Z,2.80
2018-06-14T11:50:03.201Z,2.60
2018-06-14T11:52:31.917Z,3.58
2018-06-14T11:55:00.509Z,3.02
2018-06-14T11:57:29.141Z,2.60
2018-06-14T11:59:57.778Z,2.73
2018-06-14T12:02:26.547Z,2.60
2018-06-14T12:04:55.421Z,2.30
2018-06-14T12:07:24.357Z,2.70
2018-06-14T12:09:53.027Z,4.07
2018-06-14T12:12:21.621Z,3.37
2018-06-14T12:14:50.230Z,2.13
2018-06-14T12:17:19.002Z,2.37
2018-06-14T12:19:47.565Z,2.57
2018-06-14T12:22:16.153Z,2.73
2018-06-14T12:24:44.732Z,2.93
2018-06-14T12:27:13.303Z,2.60
2018-06-14T12:29:41.916Z,2.50
2018-06-14T12:32:10.513Z,2.20
2018-06-14T12:34:39.253Z,3.17
2018-06-14T12:37:07.986Z,2.45
2018-06-14T12:39:36.748Z,3.22
2018-06-14T12:42:05.655Z,2.20
2018-06-14T12:44:34.398Z,3.35
2018-06-14T12:47:03.005Z,3.00
2018-06-14T12:49:31.582Z,2.33
2018-06-14T12:52:00.268Z,2.37
2018-06-14T12:54:28.857Z,2.17
2018-06-14T12:56:57.418Z,2.72
2018-06-14T12:59:26.124Z,2.70
2018-06-14T13:01:54.853Z,2.70
2018-06-14T13:04:23.429Z,2.40
2018-06-14T13:06:52.061Z,2.52
2018-06-14T13:09:20.697Z,2.60
2018-06-14T13:11:49.296Z,3.47
2018-06-14T13:14:17.951Z,2.50
2018-06-14T13:16:46.549Z,2.20
2018-06-14T13:19:15.163Z,2.47
2018-06-14T13:21:43.750Z,2.20
2018-06-14T13:24:12.487Z,2.63
2018-06-14T13:26:41.042Z,2.80
2018-06-14T13:29:09.688Z,2.58
2018-06-14T13:31:38.334Z,2.37
2018-06-14T13:34:07.007Z,2.40
2018-06-14T13:36:35.797Z,2.70
2018-06-14T13:39:05.761Z,2.17
2018-06-14T13:41:34.435Z,2.33
2018-06-14T13:44:03.082Z,3.10
2018-06-14T13:46:31.637Z,2.40
2018-06-14T13:49:00.318Z,2.40
2018-06-14T13:51:28.837Z,2.40
2018-06-14T13:53:57.418Z,3.90
2018-06-14T13:56:26.036Z,2.57
2018-06-14T13:58:54.634Z,2.73
2018-06-14T14:01:23.295Z,2.57
2018-06-14T14:03:51.862Z,2.63
2018-06-14T14:06:20.107Z,2.70
2018-06-14T14:08:48.751Z,2.40
2018-06-14T14:11:17.326Z,2.40
2018-06-14T14:13:45.994Z,2.40
2018-06-14T14:16:14.610Z,3.13
2018-06-14T14:18:43.217Z,2.53
2018-06-14T14:21:11.839Z,2.50
2018-06-14T14:23:40.504Z,2.30
2018-06-14T14:26:09.167Z,2.20
2018-06-14T14:28:37.807Z,3.67
2018-06-14T14:31:06.445Z,2.23
2018-06-14T14:33:35.066Z,2.27
2018-06-14T14:36:03.646Z,2.40
2018-06-14T14:38:32.274Z,2.23
2018-06-14T14:41:01.165Z,3.87
2018-06-14T14:43:29.742Z,2.40
2018-06-14T14:45:58.357Z,2.20
2018-06-14T14:48:26.962Z,2.40
2018-06-14T14:50:55.637Z,2.20
2018-06-14T14:53:24.345Z,2.30
2018-06-14T14:55:52.925Z,2.27
2018-06-14T14:58:21.548Z,3.20
2018-06-14T15:00:50.201Z,2.30
2018-06-14T15:03:18.893Z,2.17
2018-06-14T15:05:47.690Z,2.10
2018-06-14T15:08:16.273Z,3.63
2018-06-14T15:10:44.897Z,3.03
2018-06-14T15:13:13.525Z,2.70
2018-06-14T15:15:42.126Z,3.93
2018-06-14T15:18:10.769Z,2.80
2018-06-14T15:20:39.393Z,2.87
2018-06-14T15:23:07.964Z,2.60
2018-06-14T15:25:36.602Z,2.83
2018-06-14T15:28:05.323Z,3.30
2018-06-14T15:30:34.041Z,4.30
2018-06-14T15:33:02.649Z,3.30
2018-06-14T15:35:31.225Z,3.50
2018-06-14T15:37:59.813Z,3.63
2018-06-14T15:40:28.397Z,4.87
2018-06-14T15:42:57.037Z,3.93
2018-06-14T15:45:25.628Z,3.63
2018-06-14T15:47:54.273Z,4.57
2018-06-14T15:50:22.863Z,5.13
2018-06-14T15:52:51.490Z,5.27
2018-06-14T15:55:39.197Z,5.27
2018-06-14T15:58:07.813Z,5.60
2018-06-14T16:00:36.414Z,4.80
2018-06-14T16:03:05.025Z,7.10
2018-06-14T16:05:33.634Z,6.10
2018-06-14T16:08:02.269Z,6.30
2018-06-14T16:10:30.878Z,6.67
2018-06-14T16:12:59.889Z,6.37
2018-06-14T16:15:28.509Z,6.43
2018-06-14T16:17:57.108Z,6.43
2018-06-14T16:20:25.718Z,6.30
2018-06-14T16:22:54.281Z,6.07
2018-06-14T16:25:22.871Z,8.73
2018-06-14T16:27:51.429Z,6.77
2018-06-14T16:30:20.030Z,6.50
2018-06-14T16:32:48.593Z,7.13
2018-06-14T16:35:17.229Z,7.27
2018-06-14T16:37:45.798Z,7.13
2018-06-14T16:40:14.416Z,7.13
2018-06-14T16:42:43.079Z,7.47
2018-06-14T16:45:11.942Z,6.80
2018-06-14T16:47:40.657Z,8.40
2018-06-14T16:50:09.227Z,6.63
2018-06-14T16:52:37.481Z,7.03
2018-06-14T16:55:06.146Z,10.27
2018-06-14T16:57:34.759Z,7.93
2018-06-14T17:00:03.398Z,8.13
2018-06-14T17:02:32.081Z,7.77
2018-06-14T17:05:00.672Z,8.27
2018-06-14T17:07:29.419Z,8.17
2018-06-14T17:09:58.009Z,8.17
2018-06-14T17:12:26.620Z,7.07
2018-06-14T17:14:55.213Z,9.93
2018-06-14T17:17:23.797Z,7.30
2018-06-14T17:19:52.378Z,7.37
2018-06-14T17:22:21.065Z,6.43
2018-06-14T17:24:49.693Z,6.57
2018-06-14T17:27:18.263Z,7.17
2018-06-14T17:29:46.841Z,8.33
2018-06-14T17:32:15.433Z,9.37
2018-06-14T17:34:44.042Z,7.57
2018-06-14T17:37:12.624Z,8.70
2018-06-14T17:39:41.196Z,9.93
2018-06-14T17:42:09.829Z,8.77
2018-06-14T17:44:38.441Z,8.03
2018-06-14T17:47:07.046Z,8.23
2018-06-14T17:49:35.652Z,8.20
2018-06-14T17:52:04.241Z,9.20
2018-06-14T17:54:32.468Z,8.17
2018-06-14T17:57:01.130Z,7.63
2018-06-14T17:59:30.298Z,7.87
2018-06-14T18:01:58.938Z,9.07
2018-06-14T18:04:27.613Z,8.20
2018-06-14T18:06:56.253Z,8.53
2018-06-14T18:09:24.832Z,8.93
2018-06-14T18:11:53.470Z,8.57
2018-06-14T18:14:22.037Z,8.13
2018-06-14T18:16:50.774Z,9.00
2018-06-14T18:19:19.434Z,11.83
2018-06-14T18:21:48.097Z,8.77
2018-06-14T18:24:17.175Z,8.00
2018-06-14T18:26:45.843Z,9.60
2018-06-14T18:29:14.448Z,9.13
2018-06-14T18:31:43.061Z,8.93
2018-06-14T18:34:11.734Z,8.90
2018-06-14T18:36:40.338Z,8.50
2018-06-14T18:39:10.651Z,9.20
2018-06-14T18:41:39.332Z,8.90
2018-06-14T18:44:08.272Z,9.70
2018-06-14T18:46:37.361Z,8.37
2018-06-14T18:49:06.062Z,9.43
2018-06-14T18:51:35.160Z,8.67
2018-06-14T18:54:03.753Z,8.63
2018-06-14T18:56:32.350Z,8.20
2018-06-14T18:59:00.953Z,9.17
2018-06-14T19:01:29.538Z,9.37
2018-06-14T19:03:58.125Z,10.90
2018-06-14T19:06:26.705Z,9.73
2018-06-14T19:08:55.349Z,9.77
2018-06-14T19:11:23.965Z,9.77
2018-06-14T19:13:52.641Z,8.93
2018-06-14T19:16:21.233Z,9.70
2018-06-14T19:18:49.829Z,10.97
2018-06-14T19:21:18.422Z,8.43
2018-06-14T19:23:46.994Z,9.87
2018-06-14T19:26:15.679Z,9.00
2018-06-14T19:28:44.213Z,9.83
2018-06-14T19:31:12.821Z,10.80
2018-06-14T19:33:41.429Z,8.60
2018-06-14T19:36:10.061Z,9.70
2018-06-14T19:38:38.642Z,10.57
2018-06-14T19:41:07.253Z,10.73
2018-06-14T19:43:35.853Z,11.20
2018-06-14T19:46:04.532Z,10.13
2018-06-14T19:48:33.138Z,9.90
2018-06-14T19:51:01.794Z,10.40
2018-06-14T19:53:30.429Z,11.63
2018-06-14T19:55:58.999Z,10.13
2018-06-14T19:58:27.646Z,11.93
2018-06-14T20:00:56.237Z,9.83
2018-06-14T20:03:24.845Z,11.53
2018-06-14T20:05:53.465Z,9.40
2018-06-14T20:08:22.094Z,10.67
2018-06-14T20:10:50.687Z,10.30
2018-06-14T20:13:19.310Z,10.47
2018-06-14T20:15:47.890Z,11.43
2018-06-14T20:18:16.481Z,11.10
2018-06-14T20:20:45.126Z,11.53
2018-06-14T20:23:13.689Z,11.07
2018-06-14T20:25:42.317Z,11.67
2018-06-14T20:28:10.927Z,11.33
2018-06-14T20:30:39.521Z,13.53
2018-06-14T20:33:08.314Z,12.13
2018-06-14T20:35:36.919Z,12.83
2018-06-14T20:38:05.585Z,15.00
2018-06-14T20:40:34.218Z,13.67
2018-06-14T20:43:02.798Z,13.30
2018-06-14T20:45:31.406Z,12.70
2018-06-14T20:47:59.986Z,12.73
2018-06-14T20:50:28.582Z,12.97
2018-06-14T20:52:57.153Z,14.40
2018-06-14T20:55:25.770Z,12.10
2018-06-14T20:57:54.417Z,13.93
2018-06-14T21:00:23.010Z,13.23
2018-06-14T21:02:51.594Z,13.93
2018-06-14T21:05:20.210Z,14.93
2018-06-14T21:07:48.941Z,13.20
2018-06-14T21:10:17.565Z,13.17
2018-06-14T21:12:46.179Z,15.83
2018-06-14T21:15:14.797Z,16.97
2018-06-14T21:17:43.400Z,14.97
2018-06-14T21:20:11.985Z,14.47
2018-06-14T21:22:40.594Z,14.67
2018-06-14T21:25:09.182Z,14.90
2018-06-14T21:27:37.782Z,13.90
2018-06-14T21:30:06.426Z,17.07
2018-06-14T21:32:35.034Z,15.63
2018-06-14T21:35:03.617Z,15.20
2018-06-14T21:37:32.217Z,15.33
2018-06-14T21:40:00.834Z,15.63
2018-06-14T21:42:29.441Z,14.17
2018-06-14T21:44:58.034Z,14.57
2018-06-14T21:47:26.617Z,14.40
2018-06-14T21:49:55.217Z,14.97
2018-06-14T21:52:23.821Z,17.57
2018-06-14T21:54:52.443Z,15.83
2018-06-14T21:57:21.023Z,19.63
2018-06-14T21:59:49.687Z,16.23
2018-06-14T22:02:18.277Z,15.17
2018-06-14T22:04:46.874Z,14.60
2018-06-14T22:07:15.507Z,15.57
2018-06-14T22:09:45.065Z,18.07
2018-06-14T22:12:13.922Z,17.13
2018-06-14T22:14:42.529Z,15.23
2018-06-14T22:17:11.854Z,12.70
2018-06-14T22:19:40.654Z,15.00
2018-06-14T22:22:09.253Z,15.17
2018-06-14T22:24:37.818Z,17.67
2018-06-14T22:27:06.470Z,16.57
2018-06-14T22:29:35.062Z,15.33
2018-06-14T22:32:03.665Z,16.53
2018-06-14T22:34:43.419Z,13.97
2018-06-14T22:37:12.058Z,14.37
2018-06-14T22:39:40.638Z,15.23
2018-06-14T22:42:09.248Z,16.03
2018-06-14T22:44:37.475Z,15.03
2018-06-14T22:47:06.461Z,14.00
2018-06-14T22:49:35.055Z,14.83
2018-06-14T22:53:10.754Z,14.10
2018-06-14T22:55:39.391Z,15.07
2018-06-14T22:58:08.014Z,16.67
2018-06-14T23:01:58.146Z,15.40
2018-06-14T23:04:28.058Z,16.00
2018-06-14T23:06:57.082Z,16.47
2018-06-14T23:10:37.697Z,14.13
2018-06-14T23:13:07.193Z,12.77
2018-06-14T23:15:35.825Z,15.40
2018-06-14T23:18:04.498Z,15.80
2018-06-14T23:20:33.994Z,14.83
2018-06-14T23:23:03.231Z,18.10
2018-06-14T23:25:32.413Z,16.17
2018-06-14T23:28:01.033Z,17.70
2018-06-14T23:30:29.618Z,15.67
2018-06-14T23:32:58.254Z,14.50
2018-06-14T23:35:26.866Z,13.57
2018-06-14T23:37:55.466Z,14.53
2018-06-14T23:40:24.414Z,13.03
2018-06-14T23:42:53.021Z,15.30
2018-06-14T23:45:21.608Z,12.87
2018-06-14T23:47:50.219Z,15.07
2018-06-14T23:50:18.822Z,15.53
2018-06-14T23:52:47.425Z,15.93
2018-06-14T23:55:16.019Z,13.20
2018-06-14T23:57:44.616Z,11.73
